Time;durP1;ratioP1;P1;durP2;ratioP2;P2;SDS_P1;SDS_P2;PMS_P1;PMS_P2;Temp;Humidity;BMP_temperature;BMP_pressure;BME280_temperature;BME280_humidity;BME280_pressure;Samples;Min_cycle;Max_cycle;Signal;HPM_P1;HPM_P2
2023/07/19 00:00:41;;;;;;;66.25;45.38;;;27.50;99.90;;;;;;5030585;28;20018;-70
2023/07/19 00:03:08;;;;;;;58.65;44.10;;;27.60;99.90;;;;;;5030570;28;20048;-70
2023/07/19 00:05:35;;;;;;;64.07;46.15;;;27.60;99.90;;;;;;5030439;28;20429;-69
2023/07/19 00:08:04;;;;;;;58.78;43.97;;;27.70;99.90;;;;;;5030499;28;20033;-69
2023/07/19 00:10:31;;;;;;;58.95;45.05;;;27.60;99.90;;;;;;5030699;28;20038;-69
2023/07/19 00:12:58;;;;;;;62.78;45.03;;;27.60;99.90;;;;;;5030100;28;20018;-70
2023/07/19 00:15:25;;;;;;;56.58;43.28;;;27.60;99.90;;;;;;5030470;28;20081;-70
2023/07/19 00:17:51;;;;;;;62.38;44.65;;;27.60;99.90;;;;;;5030353;28;20049;-71
2023/07/19 00:20:19;;;;;;;72.63;48.95;;;27.70;99.90;;;;;;5030164;28;20021;-70
2023/07/19 00:22:46;;;;;;;67.88;47.95;;;27.80;99.90;;;;;;5030182;28;20048;-70
2023/07/19 00:25:12;;;;;;;66.28;45.88;;;27.70;99.90;;;;;;5030308;28;20047;-70
2023/07/19 00:27:39;;;;;;;80.78;55.72;;;27.90;99.90;;;;;;5030060;28;20030;-69
2023/07/19 00:30:06;;;;;;;76.05;52.33;;;27.90;99.90;;;;;;5030191;28;20026;-69
2023/07/19 00:32:32;;;;;;;65.95;48.30;;;27.90;99.90;;;;;;5030162;28;20037;-69
2023/07/19 00:34:59;;;;;;;68.80;47.72;;;28.00;99.90;;;;;;5030371;28;20361;-69
2023/07/19 00:37:25;;;;;;;71.05;49.78;;;28.20;99.90;;;;;;5030166;28;20022;-70
2023/07/19 00:39:52;;;;;;;62.45;43.90;;;28.10;99.90;;;;;;5030071;28;20025;-69
2023/07/19 00:42:19;;;;;;;64.00;43.70;;;28.30;99.90;;;;;;5029927;28;20028;-69
2023/07/19 00:44:45;;;;;;;56.75;43.28;;;28.40;99.90;;;;;;5030077;28;20026;-70
2023/07/19 00:47:12;;;;;;;120.57;88.47;;;28.30;99.90;;;;;;5030029;28;20033;-69
2023/07/19 00:49:40;;;;;;;86.40;65.72;;;28.40;99.90;;;;;;5031169;28;20029;-69
2023/07/19 00:52:07;;;;;;;91.25;64.32;;;28.30;99.90;;;;;;5033394;28;20399;-69
2023/07/19 00:54:34;;;;;;;70.60;46.97;;;28.50;99.90;;;;;;5033435;28;20017;-69
2023/07/19 00:57:04;;;;;;;80.47;61.10;;;28.30;99.90;;;;;;5033279;28;20022;-69
2023/07/19 00:59:31;;;;;;;58.45;40.15;;;28.30;99.90;;;;;;5033274;28;20476;-69
2023/07/19 01:01:58;;;;;;;60.25;41.78;;;28.40;99.90;;;;;;5033327;28;20032;-69
2023/07/19 01:04:26;;;;;;;61.17;39.25;;;28.50;99.90;;;;;;5033169;28;20029;-70
2023/07/19 01:06:52;;;;;;;54.08;37.65;;;28.60;99.90;;;;;;5033233;28;20045;-69
2023/07/19 01:09:19;;;;;;;56.03;40.08;;;28.50;99.90;;;;;;5033123;28;20498;-69
2023/07/19 01:11:45;;;;;;;54.30;40.15;;;28.60;99.90;;;;;;5032956;28;20018;-70
2023/07/19 01:14:12;;;;;;;62.60;48.80;;;28.70;99.90;;;;;;5033173;28;20360;-70
2023/07/19 01:16:39;;;;;;;65.75;49.78;;;28.80;99.90;;;;;;5033018;28;20045;-70
2023/07/19 01:19:07;;;;;;;55.67;43.25;;;28.80;99.90;;;;;;5032880;28;20021;-71
2023/07/19 01:21:34;;;;;;;83.13;62.78;;;28.70;99.90;;;;;;5032753;28;20041;-70
2023/07/19 01:24:01;;;;;;;53.60;41.78;;;28.90;99.90;;;;;;5032994;28;20086;-70
2023/07/19 01:26:27;;;;;;;64.95;48.22;;;28.80;99.90;;;;;;5032865;28;20029;-71
2023/07/19 01:28:57;;;;;;;55.65;36.80;;;29.00;99.90;;;;;;5032938;28;20028;-71
2023/07/19 01:31:24;;;;;;;50.63;34.58;;;29.00;99.90;;;;;;5032863;28;20030;-70
2023/07/19 01:33:50;;;;;;;43.15;32.60;;;29.20;99.90;;;;;;5032586;28;20037;-69
2023/07/19 01:36:17;;;;;;;45.25;34.00;;;29.40;99.90;;;;;;5032839;28;20026;-70
2023/07/19 01:38:43;;;;;;;51.83;37.30;;;29.30;99.90;;;;;;5032696;28;20471;-69
2023/07/19 01:41:10;;;;;;;43.58;33.60;;;29.40;99.90;;;;;;5032491;28;20468;-70
2023/07/19 01:43:37;;;;;;;439.75;324.02;;;29.40;99.90;;;;;;5032619;28;20029;-69
2023/07/19 01:46:03;;;;;;;117.57;85.97;;;29.50;99.90;;;;;;5032616;28;20492;-70
2023/07/19 01:48:30;;;;;;;42.70;32.80;;;29.60;99.90;;;;;;5032542;28;20026;-69
2023/07/19 01:50:56;;;;;;;40.90;29.75;;;29.70;99.90;;;;;;5032565;28;20250;-71
2023/07/19 01:53:23;;;;;;;41.80;27.02;;;29.60;99.90;;;;;;5032353;28;20026;-70
2023/07/19 01:55:49;;;;;;;40.03;28.38;;;29.70;99.90;;;;;;5032463;28;20096;-70
2023/07/19 01:58:16;;;;;;;45.63;29.27;;;29.70;99.90;;;;;;5032547;28;20013;-70
2023/07/19 02:00:43;;;;;;;42.97;29.60;;;29.80;99.90;;;;;;5031830;28;20024;-71
2023/07/19 02:03:09;;;;;;;43.05;27.25;;;29.80;99.90;;;;;;5032167;28;20024;-70
2023/07/19 02:05:36;;;;;;;36.13;27.67;;;29.90;99.90;;;;;;5031847;28;20070;-70
2023/07/19 02:08:03;;;;;;;43.38;27.92;;;29.90;99.90;;;;;;5032607;28;20021;-69
2023/07/19 02:10:30;;;;;;;431.65;266.92;;;30.00;99.90;;;;;;5030948;28;20368;-70
2023/07/19 02:12:56;;;;;;;59.95;44.72;;;30.00;99.90;;;;;;5031843;28;20028;-70
2023/07/19 02:15:23;;;;;;;46.08;31.73;;;29.90;99.90;;;;;;5032161;28;20036;-70
2023/07/19 02:17:49;;;;;;;43.17;31.13;;;29.80;99.90;;;;;;5032006;28;20021;-70
2023/07/19 02:20:19;;;;;;;43.65;32.05;;;29.90;99.90;;;;;;5031872;28;20032;-71
2023/07/19 02:22:46;;;;;;;47.17;31.55;;;29.80;99.90;;;;;;5031850;28;20052;-73
2023/07/19 02:25:13;;;;;;;43.45;30.60;;;29.90;99.90;;;;;;5031949;28;20100;-69
2023/07/19 02:27:39;;;;;;;45.53;32.05;;;29.80;99.90;;;;;;5031639;28;20028;-69
2023/07/19 02:30:07;;;;;;;43.17;29.55;;;29.90;99.90;;;;;;5031347;28;20026;-70
2023/07/19 02:32:33;;;;;;;44.40;27.65;;;29.90;99.90;;;;;;5031588;28;20034;-70
2023/07/19 02:35:00;;;;;;;40.35;27.98;;;29.90;99.90;;;;;;5031642;28;20491;-68
2023/07/19 02:37:26;;;;;;;44.00;27.55;;;29.90;99.90;;;;;;5031792;28;20049;-70
2023/07/19 02:39:53;;;;;;;49.42;36.08;;;30.00;99.90;;;;;;5031674;28;20029;-70
2023/07/19 02:42:19;;;;;;;43.58;29.30;;;30.00;99.90;;;;;;5031493;28;20502;-74
2023/07/19 02:44:46;;;;;;;35.45;26.48;;;30.00;99.90;;;;;;5031757;28;20522;-73
2023/07/19 02:47:12;;;;;;;41.33;28.00;;;30.00;99.90;;;;;;5031597;28;20025;-73
2023/07/19 02:49:41;;;;;;;44.78;30.05;;;30.00;99.90;;;;;;5031352;28;20037;-73
2023/07/19 02:52:08;;;;;;;41.50;25.52;;;30.00;99.90;;;;;;5031371;28;20025;-73
2023/07/19 02:54:35;;;;;;;40.08;27.25;;;30.00;99.90;;;;;;5031460;28;20021;-73
2023/07/19 02:57:02;;;;;;;38.50;25.92;;;30.10;99.90;;;;;;5031253;28;20045;-73
2023/07/19 02:59:28;;;;;;;40.85;25.25;;;30.20;99.90;;;;;;5013185;28;20022;-73
2023/07/19 03:01:55;;;;;;;36.33;26.27;;;30.30;99.90;;;;;;5011507;28;20018;-69
2023/07/19 03:04:21;;;;;;;38.15;26.88;;;30.40;99.90;;;;;;5011186;28;20361;-70
2023/07/19 03:06:49;;;;;;;39.83;27.15;;;30.40;99.90;;;;;;5013394;28;20034;-70
2023/07/19 03:09:15;;;;;;;43.78;27.10;;;30.40;99.90;;;;;;5030898;28;20491;-70
2023/07/19 03:11:42;;;;;;;36.45;27.13;;;30.50;99.90;;;;;;5030749;28;20025;-71
2023/07/19 03:14:08;;;;;;;80.90;55.63;;;30.50;99.90;;;;;;5029626;28;20416;-71
2023/07/19 03:16:36;;;;;;;48.75;33.08;;;30.50;99.90;;;;;;5030836;28;20045;-67
2023/07/19 03:19:04;;;;;;;54.90;30.25;;;30.40;99.90;;;;;;5030634;28;20025;-67
2023/07/19 03:21:31;;;;;;;38.03;28.40;;;30.40;99.90;;;;;;5030531;28;20024;-68
2023/07/19 03:23:57;;;;;;;36.20;27.00;;;30.50;99.90;;;;;;5030794;28;20029;-67
2023/07/19 03:26:24;;;;;;;59.13;41.88;;;30.50;99.90;;;;;;5030357;28;20043;-67
2023/07/19 03:28:50;;;;;;;43.60;29.38;;;30.60;99.90;;;;;;5030742;28;20029;-69
2023/07/19 03:31:17;;;;;;;64.35;48.40;;;30.50;99.90;;;;;;5030592;28;20037;-69
2023/07/19 03:33:43;;;;;;;112.20;100.68;;;30.60;99.90;;;;;;5030516;28;20022;-68
2023/07/19 03:36:10;;;;;;;69.85;49.60;;;30.70;99.90;;;;;;5030456;28;20022;-68
2023/07/19 03:38:36;;;;;;;211.02;169.15;;;30.70;99.90;;;;;;5030698;28;20025;-68
2023/07/19 03:41:07;;;;;;;91.18;68.18;;;30.80;99.90;;;;;;5030075;28;20070;-67
2023/07/19 03:43:34;;;;;;;124.35;84.28;;;30.90;99.90;;;;;;5030401;28;20032;-68
2023/07/19 03:46:00;;;;;;;41.30;28.58;;;30.90;99.90;;;;;;5030429;28;20539;-68
2023/07/19 03:48:27;;;;;;;85.05;70.05;;;30.90;99.90;;;;;;5030425;28;20479;-68
2023/07/19 03:50:57;;;;;;;32.10;21.75;;;31.00;99.90;;;;;;5030186;28;20479;-69
2023/07/19 03:53:24;;;;;;;28.58;17.38;;;31.10;99.90;;;;;;5029953;28;20036;-69
2023/07/19 03:55:54;;;;;;;27.33;19.13;;;31.10;99.90;;;;;;5030329;28;20028;-68
2023/07/19 03:58:24;;;;;;;30.25;17.35;;;31.10;99.90;;;;;;5030032;28;20025;-69
2023/07/19 04:00:57;;;;;;;34.30;17.73;;;31.10;99.90;;;;;;5029121;28;20132;-69
2023/07/19 04:03:25;;;;;;;48.30;39.97;;;31.20;99.90;;;;;;5030100;28;20033;-68
2023/07/19 04:05:54;;;;;;;29.80;19.55;;;31.30;99.90;;;;;;5030262;28;20028;-69
2023/07/19 04:08:21;;;;;;;25.48;17.98;;;31.30;99.90;;;;;;5030543;28;20050;-69
2023/07/19 04:10:47;;;;;;;25.45;16.15;;;31.30;99.90;;;;;;5029821;28;20053;-69
2023/07/19 04:13:14;;;;;;;20.98;15.57;;;31.40;99.90;;;;;;5030015;28;20030;-69
2023/07/19 04:15:41;;;;;;;45.72;29.13;;;31.30;99.90;;;;;;5030039;28;20428;-69
2023/07/19 04:18:08;;;;;;;70.80;47.38;;;31.40;99.90;;;;;;5029830;28;20024;-69
2023/07/19 04:20:36;;;;;;;67.53;49.35;;;31.40;99.90;;;;;;5030113;28;20026;-68
2023/07/19 04:23:03;;;;;;;52.83;36.97;;;31.40;99.90;;;;;;5029842;28;20050;-67
2023/07/19 04:25:31;;;;;;;26.70;18.58;;;31.60;99.90;;;;;;5028591;28;20076;-69
2023/07/19 04:27:57;;;;;;;29.60;16.88;;;31.60;99.90;;;;;;5029695;28;20017;-69
2023/07/19 04:30:24;;;;;;;28.65;15.00;;;31.60;99.90;;;;;;5029888;28;20029;-68
2023/07/19 04:32:54;;;;;;;60.50;40.75;;;31.70;99.90;;;;;;5029614;28;20071;-69
2023/07/19 04:35:23;;;;;;;52.22;33.83;;;31.70;99.90;;;;;;5029871;28;20022;-67
2023/07/19 04:37:50;;;;;;;44.75;29.40;;;31.80;99.90;;;;;;5029691;28;20048;-70
2023/07/19 04:40:17;;;;;;;44.50;29.73;;;31.80;99.90;;;;;;5029348;28;20017;-71
2023/07/19 04:42:44;;;;;;;36.97;26.80;;;31.80;99.90;;;;;;5029676;28;20479;-70
2023/07/19 04:45:11;;;;;;;21.05;16.10;;;31.90;99.90;;;;;;5028939;28;20030;-68
2023/07/19 04:47:38;;;;;;;28.92;19.10;;;31.90;99.90;;;;;;5029552;28;20028;-69
2023/07/19 04:50:07;;;;;;;25.25;16.65;;;32.00;99.90;;;;;;5029704;28;20026;-68
2023/07/19 04:52:33;;;;;;;24.73;13.73;;;32.10;99.90;;;;;;5029629;28;20029;-69
2023/07/19 04:55:01;;;;;;;18.70;12.32;;;32.20;99.90;;;;;;5029379;28;20387;-69
2023/07/19 04:57:28;;;;;;;21.23;13.93;;;32.20;99.90;;;;;;5029611;28;20028;-69
2023/07/19 04:59:55;;;;;;;18.42;12.85;;;32.20;99.90;;;;;;5029528;28;20022;-68
2023/07/19 05:02:21;;;;;;;27.38;21.08;;;32.30;99.90;;;;;;5029369;28;20022;-68
2023/07/19 05:04:48;;;;;;;15.23;11.70;;;32.30;99.90;;;;;;5028251;28;20053;-69
2023/07/19 05:07:16;;;;;;;22.55;13.10;;;32.40;99.90;;;;;;5027774;28;20021;-68
2023/07/19 05:09:43;;;;;;;20.55;13.13;;;32.50;99.90;;;;;;5029044;28;20029;-68
2023/07/19 05:12:10;;;;;;;22.35;12.68;;;32.40;99.90;;;;;;5029270;28;20071;-68
2023/07/19 05:14:36;;;;;;;24.75;14.00;;;32.40;99.90;;;;;;5029193;28;20022;-68
2023/07/19 05:17:03;;;;;;;19.15;13.48;;;32.40;99.90;;;;;;5028119;28;20026;-67
2023/07/19 05:19:30;;;;;;;22.50;12.55;;;32.50;99.90;;;;;;5027547;28;20487;-67
2023/07/19 05:21:57;;;;;;;20.70;11.45;;;32.50;99.90;;;;;;5027500;28;20053;-68
2023/07/19 05:24:24;;;;;;;16.08;11.20;;;32.40;99.90;;;;;;5027557;28;20467;-68
2023/07/19 05:26:51;;;;;;;18.60;11.52;;;32.40;99.90;;;;;;5027495;28;20076;-68
2023/07/19 05:29:17;;;;;;;25.10;12.90;;;32.40;99.90;;;;;;5027193;28;20483;-69
2023/07/19 05:31:44;;;;;;;15.40;9.98;;;32.40;99.90;;;;;;5027214;28;20364;-69
2023/07/19 05:34:10;;;;;;;18.30;9.10;;;32.40;99.90;;;;;;5027305;28;20041;-68
2023/07/19 05:36:37;;;;;;;14.98;9.15;;;32.30;99.90;;;;;;5028686;28;20013;-67
2023/07/19 05:39:05;;;;;;;17.10;9.10;;;32.30;99.90;;;;;;5030908;28;20037;-69
2023/07/19 05:41:31;;;;;;;18.42;9.93;;;32.40;99.90;;;;;;5030761;28;20109;-68
2023/07/19 05:43:58;;;;;;;20.77;10.63;;;32.50;99.90;;;;;;5030762;28;20455;-69
2023/07/19 05:46:24;;;;;;;18.25;10.00;;;32.50;99.90;;;;;;5030610;28;20021;-71
2023/07/19 05:48:51;;;;;;;18.05;8.90;;;32.40;99.90;;;;;;5030719;28;20431;-71
2023/07/19 05:51:17;;;;;;;16.73;9.35;;;32.50;99.90;;;;;;5037877;28;20032;-72
2023/07/19 05:53:44;;;;;;;24.20;10.18;;;32.50;99.90;;;;;;5040304;28;20018;-70
2023/07/19 05:56:10;;;;;;;19.80;10.75;;;32.40;99.90;;;;;;5039016;28;20632;-72
2023/07/19 05:58:38;;;;;;;14.07;10.57;;;32.30;99.90;;;;;;5039726;28;20021;-72
2023/07/19 06:01:07;;;;;;;17.45;10.68;;;32.30;99.90;;;;;;5038600;28;20017;-71
2023/07/19 06:03:34;;;;;;;14.93;9.95;;;32.30;99.90;;;;;;5039179;28;20484;-71
2023/07/19 06:06:05;;;;;;;21.15;11.80;;;32.20;99.90;;;;;;5037557;28;20043;-72
2023/07/19 06:08:32;;;;;;;15.20;10.07;;;32.20;99.90;;;;;;5030219;28;20133;-72
2023/07/19 06:10:59;;;;;;;14.23;9.45;;;32.20;99.90;;;;;;5030335;28;20471;-73
2023/07/19 06:13:26;;;;;;;41.97;31.13;;;32.10;99.90;;;;;;5030301;28;20098;-70
2023/07/19 06:15:52;;;;;;;66.78;40.72;;;32.20;99.90;;;;;;5031680;28;20029;-70
2023/07/19 06:18:19;;;;;;;89.80;65.00;;;32.20;99.90;;;;;;5031876;28;20029;-71
2023/07/19 06:20:45;;;;;;;138.60;109.35;;;32.20;99.90;;;;;;5031756;28;20014;-69
2023/07/19 06:23:13;;;;;;;24.02;17.05;;;32.30;99.90;;;;;;5031607;28;20072;-72
2023/07/19 06:25:39;;;;;;;22.02;13.85;;;32.30;99.90;;;;;;5031710;28;20485;-71
2023/07/19 06:28:06;;;;;;;58.03;40.72;;;32.30;99.90;;;;;;5031584;28;20029;-72
2023/07/19 06:30:32;;;;;;;26.73;18.73;;;32.30;99.90;;;;;;5025455;28;20682;-72
2023/07/19 06:32:59;;;;;;;61.10;44.75;;;32.30;99.90;;;;;;5030180;28;20029;-70
2023/07/19 06:35:26;;;;;;;23.10;12.95;;;32.30;99.90;;;;;;5037210;28;20025;-70
2023/07/19 06:37:52;;;;;;;24.65;15.73;;;32.30;99.90;;;;;;5039383;28;20017;-70
2023/07/19 06:40:19;;;;;;;17.52;9.68;;;32.30;99.90;;;;;;5035402;28;20056;-68
2023/07/19 06:42:46;;;;;;;64.82;48.80;;;32.30;99.90;;;;;;5039495;28;20069;-68
2023/07/19 06:45:12;;;;;;;57.50;42.15;;;32.40;99.90;;;;;;5036589;28;20041;-68
2023/07/19 06:47:39;;;;;;;45.35;30.80;;;32.40;99.90;;;;;;5037675;28;20202;-70
2023/07/19 06:50:06;;;;;;;81.13;52.10;;;32.40;99.90;;;;;;5041102;28;20094;-69
2023/07/19 06:52:33;;;;;;;103.78;74.88;;;32.40;99.90;;;;;;5039991;28;20024;-68
2023/07/19 06:54:59;;;;;;;37.50;26.95;;;32.40;99.90;;;;;;5039158;28;20094;-69
2023/07/19 06:57:26;;;;;;;21.10;12.73;;;32.50;99.90;;;;;;5040890;28;20084;-69
2023/07/19 06:59:53;;;;;;;25.55;15.25;;;32.40;99.90;;;;;;5044973;27;20024;-70
2023/07/19 07:02:19;;;;;;;21.23;11.68;;;32.40;99.90;;;;;;5038880;27;20025;-70
2023/07/19 07:04:47;;;;;;;21.92;11.88;;;32.40;99.90;;;;;;5037629;28;20527;-70
2023/07/19 07:07:18;;;;;;;15.52;9.93;;;32.40;99.90;;;;;;5037583;28;20025;-70
2023/07/19 07:09:46;;;;;;;17.52;11.00;;;32.40;99.90;;;;;;5035814;28;20024;-68
2023/07/19 07:12:12;;;;;;;24.75;11.90;;;32.40;99.90;;;;;;5038066;28;20379;-68
2023/07/19 07:14:40;;;;;;;20.27;11.50;;;32.40;99.90;;;;;;5041657;28;20025;-71
2023/07/19 07:17:07;;;;;;;18.00;9.52;;;32.50;99.90;;;;;;5040168;28;20047;-71
2023/07/19 07:19:34;;;;;;;13.50;8.02;;;32.50;99.90;;;;;;5037678;28;20036;-71
2023/07/19 07:22:00;;;;;;;16.45;9.50;;;32.50;99.90;;;;;;5039717;28;20355;-72
2023/07/19 07:24:27;;;;;;;16.20;9.05;;;32.50;99.90;;;;;;5039238;28;20017;-71
2023/07/19 07:26:53;;;;;;;17.75;9.77;;;32.60;99.90;;;;;;5037203;28;20028;-71
2023/07/19 07:29:20;;;;;;;21.10;8.93;;;32.60;99.90;;;;;;5031299;27;20105;-73
2023/07/19 07:31:46;;;;;;;14.80;8.55;;;32.70;99.90;;;;;;5038064;28;20108;-70
2023/07/19 07:34:13;;;;;;;15.73;7.47;;;32.80;99.90;;;;;;5039420;28;20029;-73
2023/07/19 07:36:39;;;;;;;16.15;7.45;;;32.90;99.90;;;;;;5039987;28;20021;-72
2023/07/19 07:39:06;;;;;;;15.23;6.85;;;33.00;99.90;;;;;;5039301;28;20032;-71
2023/07/19 07:41:34;;;;;;;13.15;6.53;;;33.10;99.90;;;;;;5035646;28;20478;-71
2023/07/19 07:44:00;;;;;;;10.65;6.65;;;33.20;99.90;;;;;;5030037;28;20542;-73
2023/07/19 07:46:28;;;;;;;14.43;6.03;;;33.30;99.90;;;;;;5035006;28;20117;-69
2023/07/19 07:48:59;;;;;;;16.02;6.30;;;33.40;99.90;;;;;;5037207;28;20045;-70
2023/07/19 07:51:29;;;;;;;11.65;5.85;;;33.50;99.90;;;;;;5027464;28;20109;-69
2023/07/19 07:53:56;;;;;;;17.40;6.75;;;33.40;99.90;;;;;;5028873;28;20104;-69
2023/07/19 07:56:24;;;;;;;18.77;7.00;;;33.50;99.90;;;;;;5035193;28;20203;-69
2023/07/19 07:58:50;;;;;;;68.80;51.85;;;33.40;99.90;;;;;;5024222;28;20041;-72
2023/07/19 08:01:17;;;;;;;54.83;34.50;;;33.50;99.90;;;;;;5019329;28;20025;-71
2023/07/19 08:03:44;;;;;;;26.48;14.93;;;33.60;99.90;;;;;;5020888;28;20033;-66
2023/07/19 08:06:11;;;;;;;20.92;11.40;;;33.60;99.90;;;;;;5010950;28;20086;-67
2023/07/19 08:08:37;;;;;;;17.20;8.38;;;33.70;99.90;;;;;;5010510;28;20109;-68
2023/07/19 08:11:06;;;;;;;14.18;6.55;;;33.80;99.90;;;;;;5024934;28;20360;-70
2023/07/19 08:13:33;;;;;;;17.08;6.15;;;33.70;99.90;;;;;;5030210;28;20033;-70
2023/07/19 08:15:59;;;;;;;17.45;6.50;;;33.60;99.90;;;;;;5029312;28;20026;-70
2023/07/19 08:18:26;;;;;;;13.63;6.45;;;33.60;99.90;;;;;;5030520;28;20017;-70
2023/07/19 08:20:54;;;;;;;18.27;10.65;;;33.40;99.90;;;;;;5029969;28;20093;-70
2023/07/19 08:23:20;;;;;;;17.58;7.72;;;33.40;99.90;;;;;;5029791;28;20057;-69
2023/07/19 08:25:47;;;;;;;16.98;9.40;;;33.30;99.90;;;;;;5034988;28;20543;-69
2023/07/19 08:28:13;;;;;;;18.35;7.35;;;33.30;99.90;;;;;;5033649;28;20410;-69
2023/07/19 08:30:40;;;;;;;15.60;8.10;;;33.20;99.90;;;;;;5039556;28;20462;-69
2023/07/19 08:33:08;;;;;;;23.75;7.40;;;33.10;99.90;;;;;;5036260;28;20120;-67
2023/07/19 08:35:34;;;;;;;11.73;6.43;;;33.00;99.90;;;;;;5040844;28;20398;-67
2023/07/19 08:38:01;;;;;;;14.90;6.65;;;32.90;99.90;;;;;;5039809;28;20022;-67
2023/07/19 08:40:33;;;;;;;119.88;91.75;;;32.90;99.90;;;;;;5038862;28;20105;-67
2023/07/19 08:43:04;;;;;;;17.67;10.15;;;32.90;99.90;;;;;;5039063;28;20049;-66
2023/07/19 08:45:30;;;;;;;18.63;7.72;;;32.80;99.90;;;;;;5040295;28;20044;-68
2023/07/19 08:47:57;;;;;;;14.13;6.78;;;32.70;99.90;;;;;;5038962;28;20468;-68
2023/07/19 08:50:25;;;;;;;13.02;6.40;;;32.70;99.90;;;;;;5038907;28;20109;-67
2023/07/19 08:52:52;;;;;;;14.73;7.05;;;32.70;99.90;;;;;;5039611;28;20018;-67
2023/07/19 08:55:19;;;;;;;12.82;6.22;;;32.70;99.90;;;;;;5039431;28;20040;-67
2023/07/19 08:57:46;;;;;;;57.97;43.13;;;32.70;99.90;;;;;;5029484;28;20026;-70
2023/07/19 09:00:20;;;;;;;146.98;100.00;;;32.60;99.90;;;;;;5030194;28;20079;-67
2023/07/19 09:02:47;;;;;;;42.75;23.65;;;32.60;99.90;;;;;;5033181;28;20018;-67
2023/07/19 09:05:14;;;;;;;87.82;71.50;;;32.60;99.90;;;;;;5034218;28;20025;-67
2023/07/19 09:07:41;;;;;;;24.85;15.90;;;32.60;99.90;;;;;;5029593;28;20024;-68
2023/07/19 09:10:09;;;;;;;21.95;11.73;;;32.50;99.90;;;;;;5026176;28;20035;-68
2023/07/19 09:12:39;;;;;;;18.48;12.27;;;32.40;99.90;;;;;;5030656;28;20018;-67
2023/07/19 09:15:08;;;;;;;30.00;16.45;;;32.30;99.90;;;;;;5031479;28;20498;-67
2023/07/19 09:17:46;;;;;;;25.05;16.15;;;32.30;99.90;;;;;;5038966;28;20025;-68
2023/07/19 09:20:14;;;;;;;30.05;18.50;;;32.20;99.90;;;;;;5030658;28;20055;-71
2023/07/19 09:22:41;;;;;;;27.08;17.33;;;32.20;99.90;;;;;;5038726;28;20045;-72
2023/07/19 09:25:12;;;;;;;29.98;20.75;;;32.20;99.90;;;;;;5032996;28;20026;-73
2023/07/19 09:27:43;;;;;;;39.05;23.20;;;32.20;99.90;;;;;;5037883;28;20025;-71
2023/07/19 09:30:11;;;;;;;44.72;25.17;;;32.20;99.90;;;;;;5032621;28;20040;-70
2023/07/19 09:32:38;;;;;;;43.47;28.58;;;32.10;99.90;;;;;;5044526;28;20077;-74
2023/07/19 09:35:07;;;;;;;49.13;33.33;;;32.00;99.90;;;;;;5034269;28;20204;-71
2023/07/19 09:37:33;;;;;;;41.17;28.80;;;32.00;99.90;;;;;;5039006;28;20025;-73
2023/07/19 09:40:03;;;;;;;56.50;31.48;;;32.00;99.90;;;;;;5031290;28;20021;-74
2023/07/19 09:42:35;;;;;;;45.70;31.02;;;32.00;99.90;;;;;;5028260;28;20022;-74
2023/07/19 09:45:06;;;;;;;48.65;28.00;;;32.00;99.90;;;;;;5032628;28;20468;-73
2023/07/19 09:47:35;;;;;;;45.88;28.50;;;31.90;99.90;;;;;;5036893;28;20116;-74
2023/07/19 09:50:04;;;;;;;43.17;27.70;;;31.90;99.90;;;;;;5029272;28;20022;-74
2023/07/19 09:52:34;;;;;;;44.65;29.13;;;31.80;99.90;;;;;;5036351;28;20044;-74
2023/07/19 09:55:04;;;;;;;47.38;32.28;;;31.80;99.90;;;;;;5030013;28;20262;-75
2023/07/19 09:57:33;;;;;;;171.73;118.47;;;31.80;99.90;;;;;;5040344;28;20403;-74
2023/07/19 10:00:01;;;;;;;60.63;36.63;;;31.80;99.90;;;;;;5027815;28;20025;-73
2023/07/19 10:02:28;;;;;;;599.03;416.70;;;31.80;99.90;;;;;;5034248;28;20021;-73
2023/07/19 10:04:54;;;;;;;1259.90;752.47;;;31.80;99.90;;;;;;5034473;28;20073;-74
2023/07/19 10:07:25;;;;;;;550.53;354.20;;;31.80;99.90;;;;;;5033352;28;20020;-74
2023/07/19 10:10:03;;;;;;;184.60;108.47;;;31.80;99.90;;;;;;5032439;28;20021;-73
2023/07/19 10:12:31;;;;;;;198.23;128.40;;;31.80;99.90;;;;;;5031379;28;20155;-73
2023/07/19 10:15:03;;;;;;;172.25;118.32;;;31.80;99.90;;;;;;5030164;28;20025;-72
2023/07/19 10:17:40;;;;;;;93.32;56.80;;;31.70;99.90;;;;;;5030007;28;20098;-73
2023/07/19 10:20:08;;;;;;;93.72;66.55;;;31.70;99.90;;;;;;5024296;28;20025;-73
2023/07/19 10:22:56;;;;;;;55.25;35.25;;;31.70;99.90;;;;;;5030344;28;20052;-70
2023/07/19 10:25:32;;;;;;;54.50;31.63;;;31.70;99.90;;;;;;5031471;28;20483;-75
2023/07/19 10:28:00;;;;;;;50.10;30.50;;;31.60;99.90;;;;;;5037132;28;20124;-71
2023/07/19 10:30:49;;;;;;;55.95;32.83;;;31.60;99.90;;;;;;5035260;28;20380;-73
2023/07/19 10:33:19;;;;;;;49.75;29.85;;;31.50;99.90;;;;;;5041754;28;20025;-74
2023/07/19 10:35:47;;;;;;;42.40;27.67;;;31.50;99.90;;;;;;5038872;28;20017;-75
2023/07/19 10:38:17;;;;;;;55.65;32.30;;;31.40;99.90;;;;;;5041427;28;20182;-75
2023/07/19 10:40:47;;;;;;;49.83;27.85;;;31.40;99.90;;;;;;5038295;28;20049;-73
2023/07/19 10:43:14;;;;;;;53.83;32.95;;;31.40;99.90;;;;;;5040888;28;20036;-74
2023/07/19 10:45:42;;;;;;;46.80;29.40;;;31.30;99.90;;;;;;5042503;28;20021;-76
2023/07/19 10:48:09;;;;;;;46.72;29.85;;;31.30;99.90;;;;;;5041377;28;20029;-73
2023/07/19 10:50:36;;;;;;;45.33;30.60;;;31.30;99.90;;;;;;5040397;28;20032;-73
2023/07/19 10:53:03;;;;;;;38.22;28.58;;;31.30;99.90;;;;;;5037658;28;20022;-73
2023/07/19 10:55:29;;;;;;;55.75;30.73;;;31.30;99.90;;;;;;5041413;28;20021;-72
2023/07/19 10:57:56;;;;;;;51.33;30.83;;;31.20;99.90;;;;;;5039708;28;20032;-74
2023/07/19 11:00:23;;;;;;;53.88;31.65;;;31.30;99.90;;;;;;5030115;28;20021;-73
2023/07/19 11:02:52;;;;;;;43.50;29.55;;;31.20;99.90;;;;;;5034064;28;20163;-75
2023/07/19 11:05:18;;;;;;;131.00;91.07;;;31.30;99.90;;;;;;5040977;28;20022;-71
2023/07/19 11:07:49;;;;;;;83.00;57.22;;;31.30;99.90;;;;;;5044615;28;20036;-71
2023/07/19 11:10:16;;;;;;;72.85;44.20;;;31.20;99.90;;;;;;5046529;28;20089;-71
2023/07/19 11:12:43;;;;;;;53.95;36.70;;;31.20;99.90;;;;;;5029111;28;20029;-67
2023/07/19 11:15:10;;;;;;;54.58;34.47;;;31.10;99.90;;;;;;5044379;28;20021;-71
2023/07/19 11:17:39;;;;;;;55.00;32.28;;;31.10;99.90;;;;;;5040878;28;20017;-73
2023/07/19 11:20:08;;;;;;;48.50;29.77;;;31.10;99.90;;;;;;5034158;28;20176;-70
2023/07/19 11:22:35;;;;;;;157.38;110.70;;;31.10;99.90;;;;;;5039479;28;20502;-71
2023/07/19 11:25:10;;;;;;;124.05;79.63;;;31.10;99.90;;;;;;5036975;28;20029;-72
2023/07/19 11:27:38;;;;;;;102.60;64.20;;;31.10;99.90;;;;;;5036210;28;20079;-70
2023/07/19 11:30:06;;;;;;;67.78;45.03;;;31.10;99.90;;;;;;5040370;28;20035;-70
2023/07/19 11:32:33;;;;;;;126.40;87.00;;;31.10;99.90;;;;;;5037597;28;20053;-70
2023/07/19 11:35:00;;;;;;;105.70;70.20;;;31.10;99.90;;;;;;5038950;28;20092;-70
2023/07/19 11:37:38;;;;;;;78.50;48.47;;;31.10;99.90;;;;;;5040833;28;20081;-70
2023/07/19 11:40:05;;;;;;;67.00;40.13;;;31.10;99.90;;;;;;5040514;28;20019;-70
2023/07/19 11:42:44;;;;;;;57.83;35.67;;;31.10;99.90;;;;;;5036181;28;20014;-70
2023/07/19 11:45:14;;;;;;;59.63;36.25;;;31.10;99.90;;;;;;5038665;28;20025;-70
2023/07/19 11:47:43;;;;;;;49.78;33.05;;;31.10;99.90;;;;;;5039439;28;20033;-69
2023/07/19 11:50:10;;;;;;;48.05;32.28;;;31.00;99.90;;;;;;5040684;28;20028;-68
2023/07/19 11:52:48;;;;;;;58.20;35.83;;;31.00;99.90;;;;;;5039255;28;20161;-71
2023/07/19 11:55:17;;;;;;;50.42;33.75;;;30.90;99.90;;;;;;5033833;28;20114;-68
2023/07/19 11:57:47;;;;;;;53.95;35.33;;;30.90;99.90;;;;;;5035186;28;20088;-69
2023/07/19 12:00:16;;;;;;;56.45;35.45;;;30.90;99.90;;;;;;5036237;28;20018;-70
2023/07/19 12:02:44;;;;;;;55.80;34.72;;;30.90;99.90;;;;;;5038904;28;20029;-68
2023/07/19 12:05:13;;;;;;;52.55;34.13;;;30.90;99.90;;;;;;5038338;28;20112;-70
2023/07/19 12:07:40;;;;;;;57.53;33.83;;;30.90;99.90;;;;;;5033569;28;20025;-72
2023/07/19 12:10:08;;;;;;;47.83;32.97;;;30.90;99.90;;;;;;5033037;28;20037;-69
2023/07/19 12:12:35;;;;;;;47.53;31.80;;;30.90;99.90;;;;;;5032055;28;20064;-70
2023/07/19 12:15:06;;;;;;;43.17;29.95;;;30.90;99.90;;;;;;5036563;28;20094;-69
2023/07/19 12:17:34;;;;;;;50.15;31.38;;;30.80;99.90;;;;;;5038248;27;20025;-68
2023/07/19 12:20:01;;;;;;;45.03;30.73;;;30.80;99.90;;;;;;5029688;28;20029;-71
2023/07/19 12:22:28;;;;;;;52.80;32.65;;;30.80;99.90;;;;;;5025989;28;20041;-69
2023/07/19 12:24:55;;;;;;;61.03;34.80;;;30.70;99.90;;;;;;5025833;28;20036;-70
2023/07/19 12:27:22;;;;;;;125.40;89.15;;;30.70;99.90;;;;;;5015833;28;20026;-74
2023/07/19 12:29:49;;;;;;;94.03;67.15;;;30.70;99.90;;;;;;5026146;28;20178;-72